Tribune, Kentucky
Current Conditions -  °F | °C
As of 10:15 PM on Friday 24 Oct 2014 (Local Time) from K5M9 Reporting Station
Clear Clear  
Wind Chill: 53°   Ceiling: Unl
Heat Index: 53°   Visibility: 10mi
Dew Point: 52°   Wind: 5mph
Humidity: 97%   Direction: 200°SSW
Pressure: 30.07"   Gusts: NA
Location:  37.3359°N, 88.1049°W
Report Text: K5M9 250315Z AUTO 20004KT 10SM CLR 12/11 A3007 RMK AO2 T01170112
Loading
Personal Weather Stations






























Interactive Weather Map
Tropical Storm Tracking
New forecast layout! Learn more

10-Day Weather Forecast

Advertisements
Track Severe Weather on mobile